createdAt,value
2018-08-13T00:02:12.892Z,53.20
2018-08-13T00:04:41.373Z,53.30
2018-08-13T00:07:10.800Z,53.50
2018-08-13T00:09:41.342Z,53.70
2018-08-13T00:12:10.596Z,54.60
2018-08-13T00:14:39.299Z,54.70
2018-08-13T00:17:08.071Z,54.60
2018-08-13T00:19:36.766Z,54.70
2018-08-13T00:22:05.627Z,55.00
2018-08-13T00:24:34.217Z,54.80
2018-08-13T00:27:02.709Z,54.70
2018-08-13T00:29:31.204Z,54.70
2018-08-13T00:31:59.687Z,54.90
2018-08-13T00:34:28.140Z,55.10
2018-08-13T00:36:56.658Z,55.40
2018-08-13T00:39:25.166Z,55.50
2018-08-13T00:41:53.662Z,55.40
2018-08-13T00:44:22.117Z,55.60
2018-08-13T00:46:50.644Z,55.80
2018-08-13T00:49:19.080Z,56.00
2018-08-13T00:51:47.617Z,57.20
2018-08-13T00:54:16.104Z,57.80
2018-08-13T00:56:44.620Z,58.40
2018-08-13T00:59:13.123Z,58.60
2018-08-13T01:01:41.653Z,58.70
2018-08-13T01:04:10.134Z,59.00
2018-08-13T01:06:38.808Z,59.10
2018-08-13T01:09:08.593Z,59.10
2018-08-13T01:11:37.049Z,58.90
2018-08-13T01:14:05.831Z,58.60
2018-08-13T01:16:34.338Z,58.60
2018-08-13T01:19:02.828Z,58.80
2018-08-13T01:21:31.328Z,58.80
2018-08-13T01:23:59.773Z,58.40
2018-08-13T01:26:28.273Z,58.30
2018-08-13T01:28:56.774Z,58.10
2018-08-13T01:31:25.302Z,58.20
2018-08-13T01:33:53.841Z,58.20
2018-08-13T01:36:22.386Z,58.30
2018-08-13T01:38:50.917Z,58.40
2018-08-13T01:41:19.435Z,58.60
2018-08-13T01:43:47.938Z,58.90
2018-08-13T01:46:16.550Z,59.20
2018-08-13T01:48:45.022Z,59.50
2018-08-13T01:51:13.462Z,59.80
2018-08-13T01:53:41.978Z,59.80
2018-08-13T01:56:10.489Z,60.40
2018-08-13T01:58:39.008Z,60.50
2018-08-13T02:01:07.582Z,61.00
2018-08-13T02:03:36.050Z,61.00
2018-08-13T02:06:04.598Z,61.10
2018-08-13T02:08:33.162Z,61.10
2018-08-13T02:11:01.757Z,61.20
2018-08-13T02:13:30.225Z,61.20
2018-08-13T02:15:58.705Z,61.20
2018-08-13T02:18:27.207Z,61.70
2018-08-13T02:20:55.764Z,61.80
2018-08-13T02:23:24.271Z,61.80
2018-08-13T02:25:52.798Z,62.00
2018-08-13T02:28:21.285Z,61.90
2018-08-13T02:30:49.755Z,62.20
2018-08-13T02:33:18.309Z,62.30
2018-08-13T02:35:46.775Z,62.40
2018-08-13T02:38:15.654Z,62.30
2018-08-13T02:40:44.168Z,62.00
2018-08-13T02:43:12.652Z,61.90
2018-08-13T02:45:41.123Z,61.80
2018-08-13T02:48:09.608Z,61.70
2018-08-13T02:50:38.094Z,61.70
2018-08-13T02:53:06.763Z,61.50
2018-08-13T02:55:35.241Z,61.40
2018-08-13T02:58:03.868Z,61.60
2018-08-13T03:00:32.356Z,61.70
2018-08-13T03:03:00.902Z,61.90
2018-08-13T03:05:29.424Z,62.20
2018-08-13T03:07:57.986Z,62.50
2018-08-13T03:10:26.594Z,62.80
2018-08-13T03:12:55.094Z,63.00
2018-08-13T03:15:23.595Z,63.10
2018-08-13T03:17:52.145Z,63.70
2018-08-13T03:20:20.653Z,63.60
2018-08-13T03:22:49.182Z,63.50
2018-08-13T03:25:17.660Z,63.60
2018-08-13T03:27:46.116Z,64.00
2018-08-13T03:30:14.609Z,64.70
2018-08-13T03:32:43.106Z,64.80
2018-08-13T03:35:11.563Z,65.30
2018-08-13T03:37:40.310Z,65.60
2018-08-13T03:40:10.918Z,65.70
2018-08-13T03:42:39.563Z,65.70
2018-08-13T03:45:09.694Z,66.10
2018-08-13T03:47:38.376Z,66.00
2018-08-13T03:50:07.945Z,65.70
2018-08-13T03:52:36.425Z,65.90
2018-08-13T03:55:06.137Z,65.70
2018-08-13T03:57:34.584Z,66.20
2018-08-13T04:00:03.184Z,66.50
2018-08-13T04:02:31.679Z,66.60
2018-08-13T04:05:00.196Z,66.70
2018-08-13T04:07:28.878Z,66.60
2018-08-13T04:09:57.393Z,66.50
2018-08-13T04:12:25.852Z,66.30
2018-08-13T04:14:54.345Z,66.70
2018-08-13T04:17:22.835Z,67.00
2018-08-13T04:19:51.318Z,67.40
2018-08-13T04:22:19.807Z,68.20
2018-08-13T04:24:48.291Z,67.50
2018-08-13T04:27:16.749Z,67.60
2018-08-13T04:29:45.233Z,67.90
2018-08-13T04:32:13.729Z,68.30
2018-08-13T04:34:42.225Z,68.40
2018-08-13T04:37:10.690Z,68.90
2018-08-13T04:39:39.164Z,69.10
2018-08-13T04:42:07.618Z,68.80
2018-08-13T04:44:36.112Z,68.80
2018-08-13T04:47:04.569Z,69.40
2018-08-13T04:49:33.029Z,69.40
2018-08-13T04:52:01.554Z,69.50
2018-08-13T04:54:30.026Z,69.20
2018-08-13T04:56:58.494Z,69.00
2018-08-13T04:59:27.016Z,69.10
2018-08-13T05:01:55.444Z,68.90
2018-08-13T05:04:23.945Z,68.50
2018-08-13T05:06:52.428Z,68.60
2018-08-13T05:09:20.974Z,68.30
2018-08-13T05:11:49.434Z,68.60
2018-08-13T05:14:18.210Z,68.30
2018-08-13T05:16:46.692Z,68.30
2018-08-13T05:19:15.250Z,68.40
2018-08-13T05:21:43.708Z,67.70
2018-08-13T05:24:12.210Z,67.60
2018-08-13T05:26:40.755Z,67.40
2018-08-13T05:29:09.265Z,67.40
2018-08-13T05:31:37.716Z,67.10
2018-08-13T05:34:06.225Z,66.90
2018-08-13T05:36:34.725Z,66.50
2018-08-13T05:39:03.466Z,66.20
2018-08-13T05:41:31.942Z,66.20
2018-08-13T05:44:00.389Z,65.80
2018-08-13T05:46:28.861Z,65.60
2018-08-13T05:48:57.334Z,65.20
2018-08-13T05:51:25.829Z,64.90
2018-08-13T05:53:54.279Z,64.70
2018-08-13T05:56:22.795Z,64.10
2018-08-13T05:58:51.249Z,63.70
2018-08-13T06:01:19.758Z,63.30
2018-08-13T06:03:48.186Z,62.80
2018-08-13T06:06:16.913Z,62.00
2018-08-13T06:08:45.476Z,61.40
2018-08-13T06:11:13.998Z,60.90
2018-08-13T06:13:42.422Z,60.70
2018-08-13T06:16:10.955Z,60.60
2018-08-13T06:18:42.325Z,59.70
2018-08-13T06:21:10.789Z,59.50
2018-08-13T06:23:39.283Z,59.00
2018-08-13T06:26:07.814Z,58.70
2018-08-13T06:28:36.291Z,57.90
2018-08-13T06:31:04.876Z,57.50
2018-08-13T06:33:33.331Z,57.50
2018-08-13T06:36:01.787Z,57.20
2018-08-13T06:38:30.233Z,56.60
2018-08-13T06:40:58.724Z,55.60
2018-08-13T06:43:27.288Z,54.80
2018-08-13T06:45:55.830Z,54.00
2018-08-13T06:48:24.319Z,53.70
2018-08-13T06:50:52.805Z,53.30
2018-08-13T06:53:21.260Z,53.10
2018-08-13T06:55:49.780Z,52.90
2018-08-13T06:58:18.213Z,52.60
2018-08-13T07:00:46.817Z,52.10
2018-08-13T07:03:15.240Z,51.80
2018-08-13T07:05:43.743Z,51.40
2018-08-13T07:08:12.235Z,51.10
2018-08-13T07:10:40.745Z,50.50
2018-08-13T07:13:09.280Z,50.40
2018-08-13T07:15:37.829Z,50.10
2018-08-13T07:18:06.380Z,50.00
2018-08-13T07:20:34.949Z,49.40
2018-08-13T07:23:03.501Z,48.70
2018-08-13T07:25:31.981Z,48.50
2018-08-13T07:28:00.501Z,48.20
2018-08-13T07:30:29.083Z,48.30
2018-08-13T07:32:57.561Z,48.30
2018-08-13T07:35:26.037Z,47.80
2018-08-13T07:37:54.556Z,47.50
2018-08-13T07:40:23.015Z,47.40
2018-08-13T07:42:51.466Z,47.20
2018-08-13T07:45:19.921Z,46.20
2018-08-13T07:47:48.401Z,46.50
2018-08-13T07:50:16.973Z,46.30
2018-08-13T07:52:45.483Z,45.90
2018-08-13T07:55:14.183Z,45.60
2018-08-13T07:57:42.728Z,44.40
2018-08-13T08:00:16.722Z,44.10
2018-08-13T08:02:45.247Z,43.50
2018-08-13T08:05:13.922Z,43.80
2018-08-13T08:07:42.569Z,43.50
2018-08-13T08:10:13.175Z,42.70
2018-08-13T08:12:42.058Z,43.10
2018-08-13T08:15:12.792Z,42.30
2018-08-13T08:17:41.440Z,41.80
2018-08-13T08:20:09.990Z,41.70
2018-08-13T08:22:38.985Z,41.30
2018-08-13T08:25:10.366Z,40.80
2018-08-13T08:27:38.844Z,40.10
2018-08-13T08:30:09.685Z,40.10
2018-08-13T08:32:38.699Z,40.20
2018-08-13T08:35:09.543Z,39.30
2018-08-13T08:37:39.050Z,38.70
2018-08-13T08:40:11.149Z,37.80
2018-08-13T08:42:39.697Z,37.80
2018-08-13T08:45:14.553Z,37.00
2018-08-13T08:47:43.515Z,35.60
2018-08-13T08:50:12.305Z,35.50
2018-08-13T08:52:40.815Z,34.70
2018-08-13T08:55:09.365Z,33.90
2018-08-13T08:57:38.491Z,34.80
2018-08-13T09:00:09.964Z,34.10
2018-08-13T09:02:38.401Z,34.80
2018-08-13T09:05:07.931Z,35.00
2018-08-13T09:07:36.645Z,35.70
2018-08-13T09:10:05.855Z,35.70
2018-08-13T09:12:34.372Z,36.10
2018-08-13T09:15:02.854Z,36.80
2018-08-13T09:17:43.484Z,35.90
2018-08-13T09:20:23.133Z,36.40
2018-08-13T09:23:02.839Z,37.10
2018-08-13T09:25:42.706Z,37.90
2018-08-13T09:28:22.248Z,37.10
2018-08-13T09:31:02.015Z,36.90
2018-08-13T09:33:41.972Z,37.60
2018-08-13T09:36:10.589Z,35.70
2018-08-13T09:38:39.089Z,33.30
2018-08-13T09:41:07.594Z,32.90
2018-08-13T09:43:36.100Z,32.00
2018-08-13T09:46:04.625Z,32.50
2018-08-13T09:48:33.256Z,32.00
2018-08-13T09:51:01.724Z,32.50
2018-08-13T09:53:30.257Z,32.20
2018-08-13T09:55:58.747Z,32.90
2018-08-13T09:58:27.285Z,32.30
2018-08-13T10:01:01.118Z,33.40
2018-08-13T10:03:30.060Z,33.80
2018-08-13T10:06:00.161Z,33.90
2018-08-13T10:08:29.216Z,34.40
2018-08-13T10:10:57.812Z,34.10
2018-08-13T10:13:26.235Z,35.00
2018-08-13T10:15:54.753Z,34.30
2018-08-13T10:18:23.243Z,34.00
2018-08-13T10:20:51.727Z,34.30
2018-08-13T10:23:20.267Z,34.50
2018-08-13T10:25:48.725Z,35.00
2018-08-13T10:28:17.226Z,35.60
2018-08-13T10:30:45.731Z,35.10
2018-08-13T10:33:14.262Z,36.00
2018-08-13T10:35:44.814Z,36.20
2018-08-13T10:38:13.379Z,36.00
2018-08-13T10:40:41.874Z,36.50
2018-08-13T10:43:10.403Z,36.60
2018-08-13T10:45:38.882Z,37.50
2018-08-13T10:48:07.522Z,37.70
2018-08-13T10:50:35.990Z,37.80
2018-08-13T10:53:04.562Z,37.60
2018-08-13T10:55:33.103Z,37.70
2018-08-13T10:58:01.693Z,37.20
2018-08-13T11:00:30.173Z,37.70
2018-08-13T11:02:58.823Z,36.40
2018-08-13T11:05:27.231Z,36.70
2018-08-13T11:07:55.831Z,36.50
2018-08-13T11:10:24.413Z,35.90
2018-08-13T11:12:52.887Z,36.10
2018-08-13T11:15:21.421Z,37.00
2018-08-13T11:17:49.930Z,36.10
2018-08-13T11:20:18.403Z,36.60
2018-08-13T11:22:47.229Z,36.40
2018-08-13T11:25:16.305Z,36.70
2018-08-13T11:27:44.803Z,37.20
2018-08-13T11:30:14.855Z,37.90
2018-08-13T11:32:43.531Z,38.70
2018-08-13T11:35:12.433Z,39.00
2018-08-13T11:37:40.923Z,39.00
2018-08-13T11:40:14.768Z,39.40
2018-08-13T11:42:43.417Z,40.40
2018-08-13T11:45:11.874Z,40.50
2018-08-13T11:47:40.795Z,41.10
2018-08-13T11:50:17.075Z,41.20
2018-08-13T11:52:48.125Z,42.10
2018-08-13T11:55:17.185Z,43.10
2018-08-13T11:57:46.284Z,43.70
2018-08-13T12:00:14.938Z,44.40
2018-08-13T12:02:43.506Z,45.90
2018-08-13T12:05:13.436Z,45.00
2018-08-13T12:07:42.332Z,45.40
2018-08-13T12:10:11.683Z,45.80
2018-08-13T12:12:41.145Z,46.20
2018-08-13T12:15:10.699Z,46.30
2018-08-13T12:17:39.552Z,46.70
2018-08-13T12:20:12.056Z,47.20
2018-08-13T12:22:40.650Z,47.60
2018-08-13T12:25:09.721Z,47.10
2018-08-13T12:27:38.185Z,47.10
2018-08-13T12:30:09.010Z,46.80
2018-08-13T12:32:37.459Z,46.80
2018-08-13T12:35:06.180Z,46.80
2018-08-13T12:37:34.664Z,46.30
2018-08-13T12:40:03.220Z,45.90
2018-08-13T12:42:31.683Z,46.70
2018-08-13T12:45:00.197Z,47.50
2018-08-13T12:47:28.649Z,46.70
2018-08-13T12:49:57.200Z,45.90
2018-08-13T12:52:25.661Z,46.20
2018-08-13T12:54:54.257Z,47.00
2018-08-13T12:57:22.739Z,47.30
2018-08-13T12:59:51.265Z,46.60
2018-08-13T13:02:19.763Z,47.20
2018-08-13T13:04:48.211Z,47.10
2018-08-13T13:07:16.726Z,48.10
2018-08-13T13:09:45.230Z,48.40
2018-08-13T13:12:13.694Z,49.10
2018-08-13T13:14:42.218Z,48.70
2018-08-13T13:17:10.732Z,49.10
2018-08-13T13:19:39.362Z,49.60
2018-08-13T13:22:07.909Z,50.90
2018-08-13T13:24:36.367Z,51.20
2018-08-13T13:27:04.890Z,51.50
2018-08-13T13:29:33.374Z,52.00
2018-08-13T13:32:01.853Z,52.70
2018-08-13T13:34:30.370Z,53.30
2018-08-13T13:36:58.905Z,52.90
2018-08-13T13:39:28.028Z,53.80
2018-08-13T13:41:57.306Z,54.20
2018-08-13T13:44:25.829Z,53.30
2018-08-13T13:46:54.326Z,53.40
2018-08-13T13:49:23.154Z,52.90
2018-08-13T13:51:51.700Z,52.90
2018-08-13T13:54:20.109Z,52.50
2018-08-13T13:56:48.681Z,52.80
2018-08-13T13:59:17.131Z,52.40
2018-08-13T14:01:45.597Z,53.00
2018-08-13T14:04:14.326Z,53.00
2018-08-13T14:06:42.842Z,52.80
2018-08-13T14:09:11.828Z,52.70
2018-08-13T14:11:40.335Z,52.80
2018-08-13T14:14:09.877Z,52.70
2018-08-13T14:16:38.471Z,53.00
2018-08-13T14:19:07.574Z,52.90
2018-08-13T14:21:36.078Z,53.40
2018-08-13T14:24:04.598Z,53.90
2018-08-13T14:26:34.316Z,53.50
2018-08-13T14:29:02.811Z,53.90
2018-08-13T14:31:31.340Z,54.30
2018-08-13T14:33:59.802Z,53.90
2018-08-13T14:36:28.317Z,54.30
2018-08-13T14:38:56.830Z,54.60
2018-08-13T14:41:25.381Z,54.30
2018-08-13T14:43:53.880Z,54.40
2018-08-13T14:46:22.360Z,54.60
2018-08-13T14:48:50.833Z,54.80
2018-08-13T14:51:19.372Z,55.00
2018-08-13T14:53:47.810Z,55.00
2018-08-13T14:56:16.332Z,54.90
2018-08-13T14:58:44.842Z,54.80
2018-08-13T15:01:13.310Z,54.80
2018-08-13T15:03:41.794Z,55.00
2018-08-13T15:06:10.282Z,54.80
2018-08-13T15:08:38.831Z,54.40
2018-08-13T15:11:07.306Z,54.60
2018-08-13T15:13:36.051Z,54.60
2018-08-13T15:16:04.569Z,54.50
2018-08-13T15:18:33.032Z,54.70
2018-08-13T15:21:01.527Z,54.70
2018-08-13T15:23:30.008Z,55.40
2018-08-13T15:25:58.535Z,57.00
2018-08-13T15:28:27.052Z,57.30
2018-08-13T15:30:55.564Z,57.70
2018-08-13T15:33:24.053Z,57.80
2018-08-13T15:35:52.516Z,58.60
2018-08-13T15:38:21.016Z,58.60
2018-08-13T15:40:49.502Z,58.30
2018-08-13T15:43:17.969Z,57.50
2018-08-13T15:45:46.497Z,57.60
2018-08-13T15:48:14.965Z,57.80
2018-08-13T15:50:43.515Z,57.60
2018-08-13T15:53:12.182Z,57.40
2018-08-13T15:55:40.721Z,57.20
2018-08-13T15:58:09.723Z,57.20
2018-08-13T16:00:38.235Z,56.60
2018-08-13T16:03:07.764Z,57.20
2018-08-13T16:05:36.576Z,57.60
2018-08-13T16:08:05.161Z,57.80
2018-08-13T16:10:34.288Z,57.80
2018-08-13T16:13:02.798Z,57.90
2018-08-13T16:15:31.387Z,58.50
2018-08-13T16:18:00.100Z,58.50
2018-08-13T16:20:28.610Z,59.30
2018-08-13T16:22:57.190Z,59.20
2018-08-13T16:25:25.734Z,60.30
2018-08-13T16:27:54.242Z,59.60
2018-08-13T16:30:26.612Z,59.80
2018-08-13T16:32:55.092Z,59.70
2018-08-13T16:35:24.241Z,59.50
2018-08-13T16:38:12.004Z,59.50
2018-08-13T16:40:41.138Z,59.40
2018-08-13T16:43:09.671Z,58.90
2018-08-13T16:45:38.182Z,58.80
2018-08-13T16:48:06.680Z,58.50
2018-08-13T16:50:35.182Z,58.20
2018-08-13T16:53:03.718Z,58.30
2018-08-13T16:55:33.109Z,58.20
2018-08-13T16:58:02.260Z,58.40
2018-08-13T17:00:31.804Z,58.20
2018-08-13T17:03:01.088Z,58.00
2018-08-13T17:05:31.310Z,57.50
2018-08-13T17:07:59.910Z,57.30
2018-08-13T17:10:29.297Z,57.60
2018-08-13T17:12:58.565Z,57.20
2018-08-13T17:15:28.726Z,57.30
2018-08-13T17:17:58.349Z,57.10
2018-08-13T17:20:32.539Z,57.20
2018-08-13T17:23:01.104Z,57.10
2018-08-13T17:25:30.109Z,57.00
2018-08-13T17:27:58.598Z,57.30
2018-08-13T17:30:27.574Z,57.50
2018-08-13T17:32:57.312Z,57.80
2018-08-13T17:35:28.835Z,58.60
2018-08-13T17:37:57.621Z,58.20
2018-08-13T17:40:26.448Z,58.20
2018-08-13T17:42:55.752Z,57.90
2018-08-13T17:45:24.589Z,57.80
2018-08-13T17:47:53.102Z,57.40
2018-08-13T17:50:22.079Z,57.50
2018-08-13T17:52:51.773Z,57.50
2018-08-13T17:55:20.348Z,57.70
2018-08-13T17:57:48.947Z,57.90
2018-08-13T18:00:19.861Z,58.00
2018-08-13T18:02:48.403Z,57.80
2018-08-13T18:05:19.290Z,58.00
2018-08-13T18:07:48.173Z,58.50
2018-08-13T18:10:21.268Z,58.20
2018-08-13T18:12:49.818Z,58.10
2018-08-13T18:15:18.381Z,58.40
2018-08-13T18:17:47.619Z,58.10
2018-08-13T18:20:16.130Z,58.80
2018-08-13T18:22:44.854Z,58.70
2018-08-13T18:25:14.201Z,59.00
2018-08-13T18:27:44.363Z,59.00
2018-08-13T18:30:22.538Z,59.00
2018-08-13T18:32:54.933Z,59.50
2018-08-13T18:35:23.549Z,59.70
2018-08-13T18:37:52.128Z,59.60
2018-08-13T18:40:24.653Z,59.90
2018-08-13T18:42:53.190Z,59.70
2018-08-13T18:45:21.855Z,60.00
2018-08-13T18:47:51.097Z,60.10
2018-08-13T18:50:20.838Z,60.30
2018-08-13T18:52:49.508Z,60.50
2018-08-13T18:55:22.590Z,60.70
2018-08-13T18:57:51.713Z,60.60
2018-08-13T19:00:25.283Z,60.70
2018-08-13T19:02:54.265Z,60.70
2018-08-13T19:05:23.360Z,60.70
2018-08-13T19:07:52.761Z,61.00
2018-08-13T19:10:21.767Z,61.10
2018-08-13T19:12:50.623Z,60.90
2018-08-13T19:15:21.319Z,60.90
2018-08-13T19:17:50.378Z,61.10
2018-08-13T19:20:19.160Z,61.20
2018-08-13T19:22:47.939Z,61.10
2018-08-13T19:25:21.795Z,61.10
2018-08-13T19:27:50.439Z,61.00
2018-08-13T19:30:19.964Z,61.10
2018-08-13T19:32:49.530Z,61.40
2018-08-13T19:35:18.053Z,61.40
2018-08-13T19:37:47.035Z,61.80
2018-08-13T19:40:17.740Z,62.50
2018-08-13T19:42:47.290Z,65.80
2018-08-13T19:45:16.809Z,68.80
2018-08-13T19:47:46.815Z,72.20
2018-08-13T19:50:15.716Z,72.10
2018-08-13T19:52:45.415Z,73.10
2018-08-13T19:55:14.651Z,74.80
2018-08-13T19:57:43.304Z,76.90
2018-08-13T20:00:17.190Z,76.50
2018-08-13T20:02:45.887Z,77.00
2018-08-13T20:05:14.645Z,78.70
2018-08-13T20:07:43.535Z,79.00
2018-08-13T20:10:13.462Z,79.40
2018-08-13T20:12:43.276Z,80.10
2018-08-13T20:15:11.978Z,80.80
2018-08-13T20:17:41.773Z,81.30
2018-08-13T20:20:14.933Z,81.90
2018-08-13T20:22:44.979Z,82.40
2018-08-13T20:25:14.855Z,83.10
2018-08-13T20:27:43.922Z,83.60
2018-08-13T20:30:15.742Z,84.40
2018-08-13T20:32:45.780Z,85.30
2018-08-13T20:35:14.349Z,85.70
2018-08-13T20:37:43.606Z,86.00
2018-08-13T20:40:14.383Z,86.20
2018-08-13T20:42:43.454Z,86.10
2018-08-13T20:45:14.391Z,86.60
2018-08-13T20:47:43.514Z,87.20
2018-08-13T20:50:16.024Z,86.90
2018-08-13T20:52:45.038Z,86.70
2018-08-13T20:55:17.245Z,86.50
2018-08-13T20:57:46.544Z,85.90
2018-08-13T21:00:16.250Z,86.00
2018-08-13T21:02:46.079Z,85.30
2018-08-13T21:05:14.969Z,85.30
2018-08-13T21:07:43.960Z,84.90
2018-08-13T21:10:14.655Z,84.80
2018-08-13T21:12:43.225Z,84.60
2018-08-13T21:15:15.970Z,84.50
2018-08-13T21:17:44.613Z,84.60
2018-08-13T21:20:18.573Z,84.20
2018-08-13T21:22:47.116Z,85.10
2018-08-13T21:25:15.814Z,85.20
2018-08-13T21:27:44.343Z,85.80
2018-08-13T21:30:13.033Z,86.00
2018-08-13T21:32:42.461Z,86.20
2018-08-13T21:35:11.268Z,86.40
2018-08-13T21:37:39.767Z,86.80
2018-08-13T21:40:09.258Z,87.00
2018-08-13T21:42:37.721Z,86.80
2018-08-13T21:45:07.288Z,86.90
2018-08-13T21:47:35.781Z,86.50
2018-08-13T21:50:06.718Z,86.50
2018-08-13T21:52:35.246Z,86.90
2018-08-13T21:55:03.761Z,87.30
2018-08-13T21:57:32.228Z,87.40
2018-08-13T22:00:00.790Z,87.70
2018-08-13T22:02:29.319Z,87.90
2018-08-13T22:04:57.852Z,88.00
2018-08-13T22:07:26.383Z,88.30
2018-08-13T22:09:54.925Z,88.40
2018-08-13T22:12:23.437Z,89.20
2018-08-13T22:14:51.957Z,89.20
2018-08-13T22:17:20.494Z,89.50
2018-08-13T22:19:48.993Z,89.30
2018-08-13T22:22:17.533Z,89.10
2018-08-13T22:24:57.963Z,88.90
2018-08-13T22:27:26.547Z,89.10
2018-08-13T22:29:55.094Z,89.00
2018-08-13T22:32:23.568Z,88.80
2018-08-13T22:34:52.080Z,88.90
2018-08-13T22:37:20.534Z,88.80
2018-08-13T22:39:49.066Z,88.90
2018-08-13T22:42:17.611Z,89.20
2018-08-13T22:44:46.097Z,89.60
2018-08-13T22:47:14.588Z,89.50
2018-08-13T22:49:43.087Z,89.50
2018-08-13T22:52:11.674Z,89.60
2018-08-13T22:54:40.111Z,89.50
2018-08-13T22:57:08.604Z,89.60
2018-08-13T22:59:37.060Z,89.70
2018-08-13T23:02:05.727Z,89.70
2018-08-13T23:04:34.213Z,89.50
2018-08-13T23:07:02.765Z,89.40
2018-08-13T23:09:31.338Z,90.00
2018-08-13T23:12:00.018Z,89.00
2018-08-13T23:14:28.560Z,88.90
2018-08-13T23:16:57.140Z,89.30
2018-08-13T23:19:25.650Z,89.50
2018-08-13T23:21:54.205Z,89.40
2018-08-13T23:24:22.667Z,89.40
2018-08-13T23:26:51.197Z,89.70
2018-08-13T23:29:19.696Z,89.90
2018-08-13T23:31:48.172Z,90.00
2018-08-13T23:34:16.679Z,90.40
2018-08-13T23:36:45.245Z,90.50
2018-08-13T23:39:14.267Z,90.70
2018-08-13T23:41:43.509Z,90.90
2018-08-13T23:44:12.135Z,91.00
2018-08-13T23:46:41.020Z,91.00
2018-08-13T23:49:09.584Z,91.10
2018-08-13T23:51:38.113Z,91.10
2018-08-13T23:54:06.633Z,91.10
2018-08-13T23:56:35.223Z,91.20
2018-08-13T23:59:03.779Z,91.20
